createdAt,value
2023-02-17T00:00:56.347Z,67.90
2023-02-17T00:03:23.695Z,68.20
2023-02-17T00:05:51.160Z,67.90
2023-02-17T00:08:18.045Z,68.00
2023-02-17T00:10:44.951Z,68.30
2023-02-17T00:13:11.610Z,67.90
2023-02-17T00:15:39.717Z,68.30
2023-02-17T00:18:06.318Z,68.50
2023-02-17T00:20:32.883Z,68.30
2023-02-17T00:22:59.410Z,68.80
2023-02-17T00:25:26.010Z,69.10
2023-02-17T00:27:52.524Z,68.80
2023-02-17T00:30:19.341Z,69.10
2023-02-17T00:32:45.968Z,69.20
2023-02-17T00:35:12.668Z,69.30
2023-02-17T00:37:40.243Z,69.50
2023-02-17T00:40:07.417Z,69.50
2023-02-17T00:42:33.983Z,69.50
2023-02-17T00:45:00.576Z,68.80
2023-02-17T00:47:27.078Z,68.60
2023-02-17T00:49:53.576Z,68.50
2023-02-17T00:52:20.090Z,67.60
2023-02-17T00:54:46.654Z,68.40
2023-02-17T00:57:13.189Z,68.00
2023-02-17T00:59:39.706Z,68.20
2023-02-17T01:02:06.261Z,68.00
2023-02-17T01:04:32.928Z,68.80
2023-02-17T01:06:59.452Z,68.50
2023-02-17T01:09:26.056Z,69.00
2023-02-17T01:11:52.724Z,69.00
2023-02-17T01:14:19.509Z,68.50
2023-02-17T01:16:48.250Z,68.50
2023-02-17T01:19:17.753Z,69.10
2023-02-17T01:21:44.999Z,68.40
2023-02-17T01:24:12.477Z,67.40
2023-02-17T01:26:39.904Z,68.30
2023-02-17T01:29:07.572Z,68.50
2023-02-17T01:31:34.245Z,67.90
2023-02-17T01:34:02.693Z,67.90
2023-02-17T01:36:29.604Z,67.50
2023-02-17T01:38:56.177Z,66.70
2023-02-17T01:41:26.998Z,66.90
2023-02-17T01:44:14.543Z,67.10
2023-02-17T01:46:43.852Z,67.40
2023-02-17T01:49:35.819Z,67.00
2023-02-17T01:52:10.939Z,66.90
2023-02-17T01:54:48.889Z,66.90
2023-02-17T01:57:17.897Z,67.20
2023-02-17T01:59:45.162Z,67.00
2023-02-17T02:02:12.444Z,67.10
2023-02-17T02:04:42.167Z,67.10
2023-02-17T02:07:15.784Z,66.90
2023-02-17T02:09:52.738Z,67.00
2023-02-17T02:12:23.781Z,67.40
2023-02-17T02:14:51.134Z,67.50
2023-02-17T02:17:35.985Z,67.10
2023-02-17T02:20:22.148Z,66.80
2023-02-17T02:23:17.346Z,66.80
2023-02-17T02:26:00.548Z,66.90
2023-02-17T02:28:44.947Z,66.90
2023-02-17T02:31:31.333Z,67.30
2023-02-17T02:34:02.011Z,67.30
2023-02-17T02:36:39.815Z,67.00
2023-02-17T02:39:20.838Z,66.50
2023-02-17T02:41:53.219Z,65.40
2023-02-17T02:44:21.234Z,65.30
2023-02-17T02:47:02.919Z,65.00
2023-02-17T02:49:31.405Z,64.80
2023-02-17T02:52:14.698Z,64.90
2023-02-17T02:54:51.357Z,65.90
2023-02-17T02:57:29.831Z,66.50
2023-02-17T03:00:06.354Z,66.30
2023-02-17T03:02:52.693Z,66.00
2023-02-17T03:05:45.264Z,66.00
2023-02-17T03:08:26.510Z,65.30
2023-02-17T03:10:54.924Z,65.50
2023-02-17T03:13:21.849Z,65.90
2023-02-17T03:15:49.191Z,66.20
2023-02-17T03:18:16.089Z,66.50
2023-02-17T03:21:00.043Z,66.60
2023-02-17T03:23:26.584Z,67.50
2023-02-17T03:25:53.165Z,67.90
2023-02-17T03:28:19.707Z,67.50
2023-02-17T03:30:46.257Z,66.30
2023-02-17T03:33:12.793Z,66.70
2023-02-17T03:35:39.319Z,66.30
2023-02-17T03:38:06.512Z,65.50
2023-02-17T03:40:33.062Z,65.30
2023-02-17T03:42:59.582Z,65.10
2023-02-17T03:45:26.180Z,64.90
2023-02-17T03:47:52.802Z,64.80
2023-02-17T03:50:19.398Z,64.70
2023-02-17T03:52:46.283Z,64.40
2023-02-17T03:55:13.486Z,64.60
2023-02-17T03:57:40.047Z,65.30
2023-02-17T04:00:09.323Z,65.40
2023-02-17T04:02:35.871Z,65.60
2023-02-17T04:05:02.837Z,65.80
2023-02-17T04:07:29.515Z,65.80
2023-02-17T04:09:56.083Z,65.60
2023-02-17T04:12:22.679Z,65.60
2023-02-17T04:14:49.255Z,65.60
2023-02-17T04:17:15.890Z,66.00
2023-02-17T04:19:42.614Z,66.40
2023-02-17T04:22:09.176Z,65.70
2023-02-17T04:24:38.866Z,65.50
2023-02-17T04:27:05.703Z,65.40
2023-02-17T04:29:33.500Z,65.00
2023-02-17T04:32:00.211Z,64.60
2023-02-17T04:34:26.909Z,64.70
2023-02-17T04:36:53.501Z,64.00
2023-02-17T04:39:20.220Z,63.60
2023-02-17T04:41:46.908Z,63.10
2023-02-17T04:44:13.420Z,63.00
2023-02-17T04:46:39.918Z,63.20
2023-02-17T04:49:06.544Z,63.20
2023-02-17T04:51:33.087Z,63.20
2023-02-17T04:53:59.593Z,63.10
2023-02-17T04:56:26.216Z,62.90
2023-02-17T04:58:52.750Z,63.20
2023-02-17T05:01:19.427Z,63.70
2023-02-17T05:03:45.977Z,64.90
2023-02-17T05:06:12.570Z,64.40
2023-02-17T05:08:39.126Z,64.60
2023-02-17T05:11:05.664Z,64.70
2023-02-17T05:13:33.136Z,64.70
2023-02-17T05:15:59.718Z,64.20
2023-02-17T05:18:26.250Z,64.30
2023-02-17T05:20:52.785Z,64.40
2023-02-17T05:23:19.500Z,64.30
2023-02-17T05:25:46.026Z,63.90
2023-02-17T05:28:12.575Z,63.90
2023-02-17T05:30:39.130Z,63.80
2023-02-17T05:33:05.725Z,63.30
2023-02-17T05:35:35.226Z,63.60
2023-02-17T05:38:01.924Z,63.50
2023-02-17T05:40:28.542Z,63.80
2023-02-17T05:42:55.076Z,63.80
2023-02-17T05:45:21.603Z,63.60
2023-02-17T05:47:48.175Z,63.70
2023-02-17T05:50:14.773Z,64.20
2023-02-17T05:52:41.330Z,64.30
2023-02-17T05:55:08.177Z,64.50
2023-02-17T05:57:34.852Z,64.80
2023-02-17T06:00:01.557Z,65.00
2023-02-17T06:02:28.080Z,65.40
2023-02-17T06:04:54.716Z,65.70
2023-02-17T06:07:21.323Z,66.30
2023-02-17T06:09:47.906Z,66.80
2023-02-17T06:12:14.597Z,66.50
2023-02-17T06:14:41.726Z,66.70
2023-02-17T06:17:08.304Z,65.40
2023-02-17T06:19:34.872Z,65.70
2023-02-17T06:22:01.428Z,66.40
2023-02-17T06:24:28.059Z,66.20
2023-02-17T06:26:54.623Z,66.00
2023-02-17T06:29:21.186Z,66.00
2023-02-17T06:31:47.800Z,66.00
2023-02-17T06:34:14.455Z,66.20
2023-02-17T06:36:40.986Z,67.10
2023-02-17T06:39:07.512Z,67.80
2023-02-17T06:41:34.035Z,68.20
2023-02-17T06:44:01.642Z,68.60
2023-02-17T06:46:28.177Z,69.10
2023-02-17T06:48:54.693Z,69.40
2023-02-17T06:51:21.228Z,69.90
2023-02-17T06:53:47.710Z,69.50
2023-02-17T06:56:14.203Z,69.70
2023-02-17T06:58:40.767Z,69.70
2023-02-17T07:01:14.114Z,70.40
2023-02-17T07:03:40.634Z,70.50
2023-02-17T07:06:07.419Z,70.40
2023-02-17T07:08:34.234Z,70.80
2023-02-17T07:11:08.250Z,70.60
2023-02-17T07:13:35.105Z,70.90
2023-02-17T07:16:01.700Z,70.90
2023-02-17T07:18:28.617Z,70.80
2023-02-17T07:20:55.410Z,70.80
2023-02-17T07:23:22.097Z,70.50
2023-02-17T07:25:48.655Z,70.30
2023-02-17T07:28:15.218Z,70.40
2023-02-17T07:30:43.374Z,70.50
2023-02-17T07:33:11.009Z,70.50
2023-02-17T07:35:43.806Z,70.80
2023-02-17T07:38:11.094Z,70.70
2023-02-17T07:40:38.155Z,70.90
2023-02-17T07:43:04.798Z,70.50
2023-02-17T07:45:31.554Z,70.80
2023-02-17T07:47:58.100Z,70.70
2023-02-17T07:50:24.597Z,70.70
2023-02-17T07:52:51.333Z,70.50
2023-02-17T07:55:17.926Z,70.20
2023-02-17T07:57:44.444Z,69.80
2023-02-17T08:00:11.511Z,70.10
2023-02-17T08:02:38.177Z,69.70
2023-02-17T08:05:05.019Z,69.20
2023-02-17T08:07:32.895Z,69.40
2023-02-17T08:10:18.022Z,68.50
2023-02-17T08:13:03.328Z,67.90
2023-02-17T08:15:32.909Z,67.30
2023-02-17T08:18:00.655Z,67.20
2023-02-17T08:20:27.913Z,67.10
2023-02-17T08:22:54.567Z,67.00
2023-02-17T08:25:21.086Z,66.60
2023-02-17T08:27:47.702Z,66.40
2023-02-17T08:30:14.549Z,66.70
2023-02-17T08:32:41.126Z,66.30
2023-02-17T08:35:07.946Z,66.00
2023-02-17T08:37:34.555Z,65.90
2023-02-17T08:40:01.333Z,65.50
2023-02-17T08:42:28.198Z,65.60
2023-02-17T08:44:55.043Z,65.20
2023-02-17T08:47:21.589Z,64.80
2023-02-17T08:49:48.186Z,64.90
2023-02-17T08:52:14.734Z,65.10
2023-02-17T08:54:41.266Z,65.20
2023-02-17T08:57:07.836Z,65.00
2023-02-17T08:59:34.419Z,64.50
2023-02-17T09:02:00.950Z,63.80
2023-02-17T09:04:27.535Z,63.70
2023-02-17T09:06:58.289Z,63.30
2023-02-17T09:09:28.886Z,63.40
2023-02-17T09:11:57.392Z,62.80
2023-02-17T09:14:24.052Z,62.50
2023-02-17T09:16:51.827Z,62.30
2023-02-17T09:19:18.844Z,62.20
2023-02-17T09:21:45.438Z,61.70
2023-02-17T09:24:12.182Z,61.60
2023-02-17T09:26:38.951Z,61.50
2023-02-17T09:29:06.342Z,61.60
2023-02-17T09:31:35.030Z,61.60
2023-02-17T09:34:01.829Z,61.50
2023-02-17T09:36:33.655Z,61.60
2023-02-17T09:39:01.535Z,62.00
2023-02-17T09:41:36.311Z,62.10
2023-02-17T09:44:04.866Z,62.50
2023-02-17T09:46:59.385Z,62.50
2023-02-17T09:49:34.971Z,62.50
2023-02-17T09:52:25.932Z,62.50
2023-02-17T09:55:01.309Z,62.80
2023-02-17T09:57:31.425Z,62.80
2023-02-17T10:00:12.039Z,63.20
2023-02-17T10:03:17.971Z,63.40
2023-02-17T10:06:13.156Z,63.70
2023-02-17T10:08:59.154Z,63.90
2023-02-17T10:11:33.381Z,64.10
2023-02-17T10:14:09.946Z,64.30
2023-02-17T10:16:43.879Z,64.60
2023-02-17T10:19:26.831Z,64.80
2023-02-17T10:22:05.744Z,64.80
2023-02-17T10:24:32.334Z,64.90
2023-02-17T10:27:25.878Z,64.90
2023-02-17T10:30:32.243Z,64.90
2023-02-17T10:33:11.281Z,64.80
2023-02-17T10:35:45.918Z,65.80
2023-02-17T10:38:28.779Z,65.80
2023-02-17T10:40:56.358Z,65.60
2023-02-17T10:43:29.809Z,65.30
2023-02-17T10:45:57.666Z,65.10
2023-02-17T10:48:38.496Z,64.80
2023-02-17T10:51:05.689Z,64.80
2023-02-17T10:53:37.031Z,65.00
2023-02-17T10:56:33.772Z,65.10
2023-02-17T10:59:07.162Z,65.20
2023-02-17T11:01:34.300Z,65.60
2023-02-17T11:04:11.577Z,65.70
2023-02-17T11:06:54.612Z,66.00
2023-02-17T11:09:23.296Z,66.40
2023-02-17T11:11:58.054Z,66.70
2023-02-17T11:14:29.351Z,67.30
2023-02-17T11:17:18.218Z,67.80
2023-02-17T11:19:59.027Z,68.10
2023-02-17T11:22:44.404Z,68.50
2023-02-17T11:25:26.077Z,68.60
2023-02-17T11:27:56.972Z,68.60
2023-02-17T11:30:25.546Z,68.50
2023-02-17T11:32:55.045Z,68.60
2023-02-17T11:35:35.893Z,68.80
2023-02-17T11:38:10.600Z,68.70
2023-02-17T11:40:37.352Z,68.70
2023-02-17T11:43:05.569Z,69.30
2023-02-17T11:45:48.902Z,68.70
2023-02-17T11:48:39.949Z,68.30
2023-02-17T11:51:22.451Z,68.20
2023-02-17T11:54:03.758Z,67.30
2023-02-17T11:56:36.649Z,67.40
2023-02-17T11:59:26.333Z,67.00
2023-02-17T12:02:11.852Z,67.30
2023-02-17T12:05:05.302Z,67.00
2023-02-17T12:08:17.612Z,66.60
2023-02-17T12:11:09.346Z,66.80
2023-02-17T12:13:55.415Z,66.30
2023-02-17T12:16:44.169Z,66.80
2023-02-17T12:19:26.862Z,67.50
2023-02-17T12:22:07.426Z,67.70
2023-02-17T12:25:03.455Z,67.80
2023-02-17T12:28:10.339Z,67.90
2023-02-17T12:30:52.819Z,68.50
2023-02-17T12:33:50.448Z,68.80
2023-02-17T12:36:19.346Z,69.40
2023-02-17T12:38:53.825Z,70.30
2023-02-17T12:41:26.363Z,70.20
2023-02-17T12:43:58.090Z,69.60
2023-02-17T12:46:29.242Z,69.30
2023-02-17T12:49:06.561Z,69.40
2023-02-17T12:51:40.958Z,70.70
2023-02-17T12:54:13.445Z,73.00
2023-02-17T12:56:59.830Z,73.60
2023-02-17T12:59:41.532Z,73.90
2023-02-17T13:02:20.558Z,73.40
2023-02-17T13:04:53.374Z,73.50
2023-02-17T13:07:45.247Z,73.40
2023-02-17T13:10:27.102Z,72.70
2023-02-17T13:13:01.088Z,72.60
2023-02-17T13:15:31.910Z,72.30
2023-02-17T13:18:02.867Z,71.80
2023-02-17T13:20:38.984Z,71.40
2023-02-17T13:23:10.329Z,71.10
2023-02-17T13:25:37.842Z,70.70
2023-02-17T13:28:17.869Z,70.70
2023-02-17T13:30:46.043Z,70.20
2023-02-17T13:33:29.418Z,70.10
2023-02-17T13:35:56.104Z,69.60
2023-02-17T13:38:32.919Z,70.00
2023-02-17T13:41:04.246Z,69.50
2023-02-17T13:43:39.905Z,69.80
2023-02-17T13:46:08.112Z,69.70
2023-02-17T13:48:35.842Z,70.00
2023-02-17T13:51:05.054Z,69.70
2023-02-17T13:53:40.560Z,69.30
2023-02-17T13:56:10.506Z,68.80
2023-02-17T13:58:40.092Z,68.90
2023-02-17T14:01:13.183Z,69.00
2023-02-17T14:03:39.683Z,68.90
2023-02-17T14:06:10.380Z,69.00
2023-02-17T14:08:39.855Z,68.80
2023-02-17T14:11:16.470Z,69.00
2023-02-17T14:13:46.303Z,68.80
2023-02-17T14:16:34.663Z,68.40
2023-02-17T14:19:08.662Z,69.00
2023-02-17T14:21:38.149Z,69.20
2023-02-17T14:24:04.879Z,69.60
2023-02-17T14:26:35.411Z,69.90
2023-02-17T14:29:05.787Z,69.90
2023-02-17T14:31:47.763Z,70.10
2023-02-17T14:34:35.472Z,70.20
2023-02-17T14:37:20.795Z,70.30
2023-02-17T14:39:47.368Z,70.40
2023-02-17T14:42:14.075Z,70.80
2023-02-17T14:44:40.655Z,71.00
2023-02-17T14:47:07.190Z,71.00
2023-02-17T14:49:33.696Z,70.90
2023-02-17T14:52:02.609Z,70.80
2023-02-17T14:54:30.482Z,70.60
2023-02-17T14:57:06.680Z,71.30
2023-02-17T14:59:33.346Z,70.80
2023-02-17T15:02:00.427Z,71.00
2023-02-17T15:04:27.042Z,71.00
2023-02-17T15:06:56.671Z,71.20
2023-02-17T15:09:29.915Z,71.30
2023-02-17T15:11:57.145Z,72.80
2023-02-17T15:14:24.095Z,73.60
2023-02-17T15:16:50.861Z,73.60
2023-02-17T15:19:18.468Z,73.60
2023-02-17T15:21:50.771Z,73.30
2023-02-17T15:24:25.704Z,73.00
2023-02-17T15:26:54.871Z,73.10
2023-02-17T15:29:24.039Z,73.10
2023-02-17T15:31:54.141Z,73.20
2023-02-17T15:34:24.126Z,73.40
2023-02-17T15:36:50.610Z,72.80
2023-02-17T15:39:19.920Z,71.60
2023-02-17T15:41:48.469Z,71.10
2023-02-17T15:44:19.194Z,70.60
2023-02-17T15:46:46.424Z,70.10
2023-02-17T15:49:13.681Z,69.40
2023-02-17T15:51:40.463Z,69.80
2023-02-17T15:54:07.079Z,70.10
2023-02-17T15:56:47.899Z,68.50
2023-02-17T15:59:21.878Z,68.40
2023-02-17T16:01:50.566Z,68.70
2023-02-17T16:04:17.209Z,68.40
2023-02-17T16:06:44.110Z,68.40
2023-02-17T16:09:11.142Z,69.00
2023-02-17T16:11:47.613Z,68.30
2023-02-17T16:14:32.945Z,68.60
2023-02-17T16:16:59.590Z,69.20
2023-02-17T16:19:26.147Z,69.30
2023-02-17T16:21:52.685Z,70.10
2023-02-17T16:24:19.319Z,69.50
2023-02-17T16:26:46.161Z,69.50
2023-02-17T16:29:15.944Z,69.60
2023-02-17T16:31:42.625Z,69.90
2023-02-17T16:34:17.892Z,70.80
2023-02-17T16:36:44.607Z,71.00
2023-02-17T16:39:14.294Z,71.40
2023-02-17T16:41:41.694Z,71.40
2023-02-17T16:44:19.383Z,71.40
2023-02-17T16:46:51.423Z,71.40
2023-02-17T16:49:24.528Z,71.60
2023-02-17T16:51:51.935Z,71.90
2023-02-17T16:54:18.607Z,72.00
2023-02-17T16:56:48.400Z,72.00
2023-02-17T16:59:17.465Z,72.50
2023-02-17T17:01:44.386Z,72.60
2023-02-17T17:04:11.021Z,72.80
2023-02-17T17:06:41.877Z,72.90
2023-02-17T17:09:08.674Z,73.50
2023-02-17T17:11:35.196Z,73.80
2023-02-17T17:14:01.716Z,73.80
2023-02-17T17:16:31.620Z,73.80
2023-02-17T17:21:34.217Z,74.30
2023-02-17T17:24:00.809Z,74.50
2023-02-17T17:26:30.815Z,74.60
2023-02-17T17:28:57.876Z,74.90
2023-02-17T17:31:24.898Z,75.10
2023-02-17T17:33:51.881Z,74.90
2023-02-17T17:36:30.954Z,75.10
2023-02-17T17:38:59.149Z,75.10
2023-02-17T17:41:27.261Z,75.00
2023-02-17T17:43:55.331Z,74.90
2023-02-17T17:46:25.144Z,74.90
2023-02-17T17:48:52.164Z,75.00
2023-02-17T17:51:20.941Z,75.00
2023-02-17T17:53:47.654Z,75.10
2023-02-17T17:56:20.393Z,75.20
2023-02-17T17:58:47.287Z,75.10
2023-02-17T18:01:14.565Z,74.80
2023-02-17T18:03:42.332Z,74.90
2023-02-17T18:06:22.395Z,75.00
2023-02-17T18:08:50.491Z,75.20
2023-02-17T18:11:19.286Z,75.40
2023-02-17T18:13:49.102Z,75.30
2023-02-17T18:16:16.377Z,75.60
2023-02-17T18:18:43.053Z,76.20
2023-02-17T18:21:09.630Z,76.30
2023-02-17T18:23:36.167Z,76.90
2023-02-17T18:26:02.713Z,77.10
2023-02-17T18:28:29.366Z,77.30
2023-02-17T18:30:56.946Z,77.60
2023-02-17T18:33:23.721Z,78.00
2023-02-17T18:35:50.411Z,78.30
2023-02-17T18:38:16.978Z,78.20
2023-02-17T18:40:43.552Z,78.40
2023-02-17T18:43:10.302Z,78.80
2023-02-17T18:45:36.956Z,79.10
2023-02-17T18:48:03.588Z,79.20
2023-02-17T18:50:33.002Z,79.40
2023-02-17T18:53:00.258Z,79.60
2023-02-17T18:55:26.815Z,79.70
2023-02-17T18:57:54.059Z,79.80
2023-02-17T19:00:20.825Z,79.80
2023-02-17T19:02:47.688Z,79.80
2023-02-17T19:05:14.947Z,79.70
2023-02-17T19:07:41.460Z,79.70
2023-02-17T19:10:08.780Z,79.70
2023-02-17T19:12:35.648Z,79.60
2023-02-17T19:15:02.258Z,79.60
2023-02-17T19:17:28.835Z,79.60
2023-02-17T19:19:55.507Z,79.50
2023-02-17T19:22:22.038Z,79.50
2023-02-17T19:24:53.717Z,79.50
2023-02-17T19:27:20.724Z,80.00
2023-02-17T19:29:47.598Z,79.60
2023-02-17T19:32:14.330Z,79.60
2023-02-17T19:34:40.863Z,79.70
2023-02-17T19:37:07.431Z,79.80
2023-02-17T19:39:36.088Z,79.90
2023-02-17T19:42:03.174Z,80.00
2023-02-17T19:44:31.472Z,80.00
2023-02-17T19:46:58.365Z,80.00
2023-02-17T19:49:25.003Z,80.10
2023-02-17T19:51:53.315Z,80.20
2023-02-17T19:54:19.860Z,80.50
2023-02-17T19:56:48.256Z,80.60
2023-02-17T19:59:14.854Z,80.80
2023-02-17T20:01:43.304Z,81.10
2023-02-17T20:04:10.285Z,81.10
2023-02-17T20:06:43.636Z,81.30
2023-02-17T20:09:14.942Z,81.30
2023-02-17T20:11:41.925Z,81.40
2023-02-17T20:14:10.794Z,81.50
2023-02-17T20:16:38.025Z,81.50
2023-02-17T20:19:05.190Z,81.50
2023-02-17T20:21:34.979Z,81.50
2023-02-17T20:24:02.257Z,81.50
2023-02-17T20:26:32.206Z,81.50
2023-02-17T20:28:59.635Z,81.60
2023-02-17T20:31:26.975Z,81.50
2023-02-17T20:33:53.923Z,81.60
2023-02-17T20:36:22.185Z,81.40
2023-02-17T20:38:50.024Z,81.50
2023-02-17T20:41:19.819Z,81.40
2023-02-17T20:43:46.654Z,81.40
2023-02-17T20:46:24.772Z,81.50
2023-02-17T20:48:52.248Z,81.50
2023-02-17T20:51:19.591Z,81.60
2023-02-17T20:53:46.595Z,81.70
2023-02-17T20:56:18.550Z,81.70
2023-02-17T20:58:46.127Z,81.80
2023-02-17T21:01:12.754Z,82.00
2023-02-17T21:03:39.450Z,82.20
2023-02-17T21:06:24.290Z,82.30
2023-02-17T21:08:57.008Z,82.50
2023-02-17T21:11:24.456Z,82.70
2023-02-17T21:13:51.379Z,82.80
2023-02-17T21:16:21.147Z,82.80
2023-02-17T21:18:48.008Z,82.80
2023-02-17T21:21:15.290Z,82.90
2023-02-17T21:23:42.164Z,82.90
2023-02-17T21:26:10.626Z,82.80
2023-02-17T21:28:38.022Z,82.80
2023-02-17T21:31:05.363Z,82.90
2023-02-17T21:33:32.066Z,82.90
2023-02-17T21:35:58.760Z,82.90
2023-02-17T21:38:25.271Z,82.80
2023-02-17T21:40:51.919Z,82.70
2023-02-17T21:43:38.033Z,82.80
2023-02-17T21:46:09.691Z,82.80
2023-02-17T21:48:38.157Z,82.80
2023-02-17T21:51:10.240Z,82.70
2023-02-17T21:53:37.139Z,82.70
2023-02-17T21:56:05.100Z,82.80
2023-02-17T21:58:32.395Z,82.70
2023-02-17T22:00:59.493Z,82.80
2023-02-17T22:03:26.606Z,82.80
2023-02-17T22:05:53.361Z,83.00
2023-02-17T22:08:19.893Z,83.20
2023-02-17T22:10:46.561Z,83.40
2023-02-17T22:13:13.056Z,83.70
2023-02-17T22:15:39.631Z,83.90
2023-02-17T22:18:06.162Z,83.90
2023-02-17T22:20:33.321Z,84.00
2023-02-17T22:22:59.841Z,83.90
2023-02-17T22:25:26.471Z,83.90
2023-02-17T22:27:53.341Z,83.90
2023-02-17T22:30:20.002Z,84.30
2023-02-17T22:32:46.604Z,83.90
2023-02-17T22:35:14.295Z,84.20
2023-02-17T22:37:40.894Z,84.40
2023-02-17T22:40:08.926Z,84.60
2023-02-17T22:42:35.480Z,84.60
2023-02-17T22:45:02.051Z,84.90
2023-02-17T22:47:28.622Z,85.00
2023-02-17T22:49:55.166Z,85.30
2023-02-17T22:52:22.405Z,85.40
2023-02-17T22:54:49.013Z,85.50
2023-02-17T22:57:15.618Z,85.80
2023-02-17T22:59:42.227Z,85.90
2023-02-17T23:02:08.757Z,86.00
2023-02-17T23:04:35.315Z,86.00
2023-02-17T23:07:01.945Z,86.00
2023-02-17T23:09:28.474Z,85.90
2023-02-17T23:11:55.377Z,85.70
2023-02-17T23:14:33.060Z,85.60
2023-02-17T23:17:01.992Z,85.70
2023-02-17T23:19:29.192Z,85.70
2023-02-17T23:21:58.989Z,85.80
2023-02-17T23:24:27.179Z,85.90
2023-02-17T23:26:55.718Z,85.80
2023-02-17T23:29:23.009Z,85.70
2023-02-17T23:31:49.688Z,85.70
2023-02-17T23:34:16.698Z,85.70
2023-02-17T23:36:44.915Z,85.70
2023-02-17T23:39:12.294Z,85.70
2023-02-17T23:41:39.770Z,85.70
2023-02-17T23:44:09.624Z,85.80
2023-02-17T23:46:37.043Z,85.90
2023-02-17T23:49:03.880Z,86.20
2023-02-17T23:51:30.553Z,86.50
2023-02-17T23:53:57.291Z,86.60
2023-02-17T23:56:32.129Z,86.60
2023-02-17T23:58:59.290Z,86.50
